sensor_id;sensor_type;location;lat;lon;timestamp;P1;durP1;ratioP1;P2;durP2;ratioP2
30966;SDS011;17649;51.836;8.330;2022-10-31T11:03:39;48.03;;;21.70;;
30966;SDS011;17649;51.836;8.330;2022-10-31T11:06:41;45.83;;;23.17;;
30966;SDS011;17649;51.836;8.330;2022-10-31T11:09:43;43.10;;;23.57;;
30966;SDS011;17649;51.836;8.330;2022-10-31T11:13:05;38.78;;;20.45;;
30966;SDS011;17649;51.836;8.330;2022-10-31T11:16:33;37.38;;;21.38;;
30966;SDS011;17649;51.836;8.330;2022-10-31T11:19:38;47.17;;;24.00;;
30966;SDS011;17649;51.836;8.330;2022-10-31T11:22:43;47.45;;;24.65;;
30966;SDS011;17649;51.836;8.330;2022-10-31T11:25:49;42.78;;;23.08;;
30966;SDS011;17649;51.836;8.330;2022-10-31T11:29:01;55.63;;;25.67;;
30966;SDS011;17649;51.836;8.330;2022-10-31T11:32:08;49.92;;;22.33;;
30966;SDS011;17649;51.836;8.330;2022-10-31T11:35:21;47.17;;;23.20;;
30966;SDS011;17649;51.836;8.330;2022-10-31T11:38:39;44.92;;;25.13;;
30966;SDS011;17649;51.836;8.330;2022-10-31T11:41:45;55.55;;;27.77;;
30966;SDS011;17649;51.836;8.330;2022-10-31T11:44:48;54.33;;;26.40;;
30966;SDS011;17649;51.836;8.330;2022-10-31T11:47:52;46.72;;;24.70;;
30966;SDS011;17649;51.836;8.330;2022-10-31T11:50:58;52.17;;;23.92;;
30966;SDS011;17649;51.836;8.330;2022-10-31T11:54:02;51.30;;;25.95;;
30966;SDS011;17649;51.836;8.330;2022-10-31T11:57:32;48.95;;;24.20;;
30966;SDS011;17649;51.836;8.330;2022-10-31T12:00:56;49.72;;;25.63;;
30966;SDS011;17649;51.836;8.330;2022-10-31T12:04:14;50.65;;;23.98;;
30966;SDS011;17649;51.836;8.330;2022-10-31T12:07:23;44.92;;;24.25;;
30966;SDS011;17649;51.836;8.330;2022-10-31T12:10:28;44.78;;;22.40;;
30966;SDS011;17649;51.836;8.330;2022-10-31T12:14:00;38.10;;;20.35;;
30966;SDS011;17649;51.836;8.330;2022-10-31T12:17:23;46.63;;;22.73;;
30966;SDS011;17649;51.836;8.330;2022-10-31T12:25:00;42.55;;;22.38;;
30966;SDS011;17649;51.836;8.330;2022-10-31T12:28:34;40.28;;;21.27;;
30966;SDS011;17649;51.836;8.330;2022-10-31T12:34:59;36.67;;;19.80;;
30966;SDS011;17649;51.836;8.330;2022-10-31T12:38:27;42.38;;;20.30;;
30966;SDS011;17649;51.836;8.330;2022-10-31T12:41:45;44.63;;;23.48;;
30966;SDS011;17649;51.836;8.330;2022-10-31T12:48:14;37.75;;;22.20;;
30966;SDS011;17649;51.836;8.330;2022-10-31T12:51:46;43.50;;;23.20;;
30966;SDS011;17649;51.836;8.330;2022-10-31T13:06:05;32.85;;;16.83;;
30966;SDS011;17649;51.836;8.330;2022-10-31T13:09:17;31.58;;;14.40;;
30966;SDS011;17649;51.836;8.330;2022-10-31T13:12:21;26.48;;;15.73;;
30966;SDS011;17649;51.836;8.330;2022-10-31T13:15:47;29.05;;;15.60;;
30966;SDS011;17649;51.836;8.330;2022-10-31T13:22:13;33.80;;;14.30;;
30966;SDS011;17649;51.836;8.330;2022-10-31T13:25:25;24.63;;;12.20;;
30966;SDS011;17649;51.836;8.330;2022-10-31T13:28:36;26.88;;;12.75;;
30966;SDS011;17649;51.836;8.330;2022-10-31T13:31:45;28.55;;;13.05;;
30966;SDS011;17649;51.836;8.330;2022-10-31T13:34:47;27.05;;;12.77;;
30966;SDS011;17649;51.836;8.330;2022-10-31T13:38:05;25.63;;;13.90;;
30966;SDS011;17649;51.836;8.330;2022-10-31T13:44:44;30.80;;;13.60;;
30966;SDS011;17649;51.836;8.330;2022-10-31T13:47:55;18.00;;;11.30;;
30966;SDS011;17649;51.836;8.330;2022-10-31T13:51:08;20.58;;;12.10;;
30966;SDS011;17649;51.836;8.330;2022-10-31T13:54:32;24.15;;;11.88;;
30966;SDS011;17649;51.836;8.330;2022-10-31T13:57:44;23.73;;;11.70;;
30966;SDS011;17649;51.836;8.330;2022-10-31T14:01:15;23.00;;;13.32;;
30966;SDS011;17649;51.836;8.330;2022-10-31T14:08:02;27.05;;;13.73;;
30966;SDS011;17649;51.836;8.330;2022-10-31T14:11:07;26.20;;;12.70;;
30966;SDS011;17649;51.836;8.330;2022-10-31T14:14:22;19.67;;;11.82;;
30966;SDS011;17649;51.836;8.330;2022-10-31T14:17:46;22.15;;;11.70;;
30966;SDS011;17649;51.836;8.330;2022-10-31T14:20:51;27.92;;;12.68;;
30966;SDS011;17649;51.836;8.330;2022-10-31T14:23:54;30.60;;;13.55;;
30966;SDS011;17649;51.836;8.330;2022-10-31T14:30:30;27.60;;;13.82;;
30966;SDS011;17649;51.836;8.330;2022-10-31T14:33:40;34.13;;;14.90;;
30966;SDS011;17649;51.836;8.330;2022-10-31T14:47:48;25.02;;;13.23;;
30966;SDS011;17649;51.836;8.330;2022-10-31T14:51:16;30.38;;;15.70;;
30966;SDS011;17649;51.836;8.330;2022-10-31T14:54:34;36.25;;;18.48;;
30966;SDS011;17649;51.836;8.330;2022-10-31T14:57:47;38.65;;;16.83;;
30966;SDS011;17649;51.836;8.330;2022-10-31T15:01:01;33.08;;;16.77;;
30966;SDS011;17649;51.836;8.330;2022-10-31T15:04:13;29.58;;;16.00;;
30966;SDS011;17649;51.836;8.330;2022-10-31T15:07:27;28.73;;;15.70;;
30966;SDS011;17649;51.836;8.330;2022-10-31T15:26:03;44.97;;;14.48;;
30966;SDS011;17649;51.836;8.330;2022-10-31T15:29:21;37.25;;;16.90;;
30966;SDS011;17649;51.836;8.330;2022-10-31T15:32:28;36.63;;;18.60;;
30966;SDS011;17649;51.836;8.330;2022-10-31T15:35:30;34.13;;;17.88;;
30966;SDS011;17649;51.836;8.330;2022-10-31T15:38:31;30.63;;;17.02;;
30966;SDS011;17649;51.836;8.330;2022-10-31T15:41:49;34.60;;;19.67;;
30966;SDS011;17649;51.836;8.330;2022-10-31T15:44:56;30.20;;;17.95;;
30966;SDS011;17649;51.836;8.330;2022-10-31T15:48:03;35.97;;;17.57;;
30966;SDS011;17649;51.836;8.330;2022-10-31T15:51:27;29.00;;;17.02;;
30966;SDS011;17649;51.836;8.330;2022-10-31T15:54:32;30.27;;;17.90;;
30966;SDS011;17649;51.836;8.330;2022-10-31T15:57:33;31.90;;;18.00;;
30966;SDS011;17649;51.836;8.330;2022-10-31T16:00:42;34.15;;;18.88;;
30966;SDS011;17649;51.836;8.330;2022-10-31T16:03:44;31.63;;;18.42;;
30966;SDS011;17649;51.836;8.330;2022-10-31T16:07:13;35.40;;;18.98;;
30966;SDS011;17649;51.836;8.330;2022-10-31T16:10:22;33.13;;;19.05;;
30966;SDS011;17649;51.836;8.330;2022-10-31T16:13:27;29.53;;;17.00;;
30966;SDS011;17649;51.836;8.330;2022-10-31T16:16:32;32.10;;;18.40;;
30966;SDS011;17649;51.836;8.330;2022-10-31T16:19:36;35.38;;;18.95;;
30966;SDS011;17649;51.836;8.330;2022-10-31T16:23:13;30.53;;;18.07;;
30966;SDS011;17649;51.836;8.330;2022-10-31T16:26:18;29.50;;;17.17;;
30966;SDS011;17649;51.836;8.330;2022-10-31T16:29:38;28.15;;;17.23;;
30966;SDS011;17649;51.836;8.330;2022-10-31T16:32:54;27.35;;;17.50;;
30966;SDS011;17649;51.836;8.330;2022-10-31T16:35:59;31.23;;;18.87;;
30966;SDS011;17649;51.836;8.330;2022-10-31T16:39:02;35.83;;;19.45;;
30966;SDS011;17649;51.836;8.330;2022-10-31T16:42:04;31.35;;;17.70;;
30966;SDS011;17649;51.836;8.330;2022-10-31T16:45:05;31.88;;;18.55;;
30966;SDS011;17649;51.836;8.330;2022-10-31T16:48:15;34.53;;;19.00;;
30966;SDS011;17649;51.836;8.330;2022-10-31T16:51:19;32.75;;;18.27;;
30966;SDS011;17649;51.836;8.330;2022-10-31T16:54:21;38.40;;;19.33;;
30966;SDS011;17649;51.836;8.330;2022-10-31T16:57:25;31.70;;;18.15;;
30966;SDS011;17649;51.836;8.330;2022-10-31T17:00:30;33.78;;;18.98;;
30966;SDS011;17649;51.836;8.330;2022-10-31T17:03:42;33.03;;;17.88;;
30966;SDS011;17649;51.836;8.330;2022-10-31T18:37:32;38.70;;;19.02;;
30966;SDS011;17649;51.836;8.330;2022-10-31T19:01:43;30.03;;;17.60;;
30966;SDS011;17649;51.836;8.330;2022-10-31T19:09:08;29.92;;;17.48;;
30966;SDS011;17649;51.836;8.330;2022-10-31T20:17:29;25.02;;;13.80;;
30966;SDS011;17649;51.836;8.330;2022-10-31T20:30:11;28.60;;;13.30;;
30966;SDS011;17649;51.836;8.330;2022-10-31T20:38:08;24.27;;;12.80;;
30966;SDS011;17649;51.836;8.330;2022-10-31T22:17:34;36.03;;;16.90;;
30966;SDS011;17649;51.836;8.330;2022-10-31T23:56:30;30.70;;;14.82;;
30966;SDS011;17649;51.836;8.330;2022-10-31T23:59:31;31.70;;;16.87;;
